Disclaimer

Please do not use the information listed here in-flight or in-navigation, as they are not provided to us by the airports but are provided by volunteers, so they might be outdated.

Search


Regions


Airport information page

Radio informations:
NIZHNY TAXIING - 121.8 MHz
NIZHNY ATIS - 127.8 MHz
NIZHNY KRUG - 120.8 MHz
NIZHNY APP - 124.7 MHz

Airport informations:
Latitude: 56° 13' 48.43" N
Longitude: 043° 47' 02.55" E
Elevation: 256 feet - 78 meters
Operating hours: 24 hour operations
Operating agency: Civil government, landing fees and diplomatic clearance may be required
Timezone: UTC+3(+4DT) - Last Sunday in March to last Sunday in October
Fuel: N/A

Runway information:
06/24 - 1640 x 72 feet< - >500 x 22 meters
15/33 - 1969 x 72 feet< - >600 x 22 meters
18R/36L - 9203 x 148 feet< - >2805 x 45 meters
18L/36R - 8232 x 148 feet< - >2509 x 45 meters

Recent METARs:
UWGG 151030Z 19004MPS CAVOK M00/M12 Q1039 R18L/090060 NOSIG
UWGG 151100Z 18003MPS CAVOK M00/M11 Q1039 R18L/090060 NOSIG
UWGG 151130Z 18003MPS CAVOK 00/M12 Q1039 R18L/090060 NOSIG

Airport on the map: